Time;durP1;ratioP1;P1;durP2;ratioP2;P2;SDS_P1;SDS_P2;PMS_P1;PMS_P2;Temp;Humidity;BMP_temperature;BMP_pressure;BME280_temperature;BME280_humidity;BME280_pressure;Samples;Min_cycle;Max_cycle;Signal;HPM_P1;HPM_P2
2021/08/03 00:00:56;;;;;;;2.43;1.97;;;;;22.90;100369.00;;;;2083508;28;20217;-54
2021/08/03 00:01:56;;;;;;;2.10;1.92;;;;;22.90;100370.00;;;;2078897;28;20307;-56
2021/08/03 00:02:58;;;;;;;2.27;2.00;;;;;22.90;100372.00;;;;2076197;28;20525;-56
2021/08/03 00:04:14;;;;;;;2.25;2.05;;;;;22.90;100369.00;;;;2083300;28;20217;-55
2021/08/03 00:05:20;;;;;;;2.28;1.70;;;;;22.90;100369.00;;;;2063640;28;20210;-56
2021/08/03 00:06:21;;;;;;;3.67;1.70;;;;;22.90;100364.00;;;;2076199;28;20309;-56
2021/08/03 00:07:22;;;;;;;3.63;1.80;;;;;22.80;100366.00;;;;2076139;28;20209;-56
2021/08/03 00:08:26;;;;;;;2.40;2.07;;;;;22.80;100364.00;;;;2076007;28;20472;-55
2021/08/03 00:09:28;;;;;;;2.25;2.03;;;;;22.90;100362.00;;;;2075835;28;20237;-57
2021/08/03 00:10:30;;;;;;;2.35;1.90;;;;;22.90;100359.00;;;;2065063;28;20226;-54
2021/08/03 00:11:30;;;;;;;1.58;1.48;;;;;22.80;100358.00;;;;2060232;28;20210;-56
2021/08/03 00:12:31;;;;;;;2.40;1.93;;;;;22.80;100361.00;;;;2073799;28;20877;-56
2021/08/03 00:13:33;;;;;;;2.30;1.90;;;;;22.80;100364.00;;;;2077160;28;20240;-56
2021/08/03 00:14:34;;;;;;;2.10;1.90;;;;;22.80;100354.00;;;;2076209;28;20213;-55
2021/08/03 00:15:34;;;;;;;2.40;2.10;;;;;22.80;100361.00;;;;2075434;28;20690;-56
2021/08/03 00:16:36;;;;;;;2.37;2.00;;;;;22.90;100365.00;;;;2076447;28;20217;-54
2021/08/03 00:17:36;;;;;;;2.70;1.90;;;;;22.80;100366.00;;;;2076115;28;20330;-57
2021/08/03 00:18:40;;;;;;;2.90;1.83;;;;;22.90;100358.00;;;;2075100;28;20217;-55
2021/08/03 00:19:41;;;;;;;2.35;1.90;;;;;22.80;100362.00;;;;2076455;28;20232;-55
2021/08/03 00:20:42;;;;;;;2.10;1.90;;;;;22.80;100362.00;;;;2075997;28;20267;-54
2021/08/03 00:21:42;;;;;;;2.60;2.10;;;;;22.80;100366.00;;;;2076659;28;20214;-56
2021/08/03 00:22:43;;;;;;;1.70;1.60;;;;;22.80;100369.00;;;;2072659;28;20958;-55
2021/08/03 00:23:46;;;;;;;2.70;1.90;;;;;22.80;100362.00;;;;2076772;28;20217;-55
2021/08/03 00:24:47;;;;;;;2.28;2.08;;;;;22.80;100364.00;;;;2075949;28;20221;-56
2021/08/03 00:25:52;;;;;;;2.47;2.00;;;;;22.90;100362.00;;;;2071038;28;20288;-57
2021/08/03 00:26:53;;;;;;;2.85;1.90;;;;;22.80;100359.00;;;;2072263;28;20214;-58
2021/08/03 00:27:53;;;;;;;2.50;1.67;;;;;22.80;100364.00;;;;2077117;28;20214;-56
2021/08/03 00:28:54;;;;;;;2.00;1.80;;;;;22.80;100365.00;;;;2082847;28;20268;-56
2021/08/03 00:29:55;;;;;;;1.93;1.73;;;;;22.80;100361.00;;;;2081006;28;20209;-56
2021/08/03 00:30:56;;;;;;;2.17;1.98;;;;;22.80;100371.00;;;;2075080;28;20224;-56
2021/08/03 00:31:56;;;;;;;2.63;1.70;;;;;22.80;100368.00;;;;2070111;28;20714;-56
2021/08/03 00:32:57;;;;;;;2.37;1.80;;;;;22.80;100366.00;;;;2076484;28;20297;-57
2021/08/03 00:33:57;;;;;;;2.80;2.40;;;;;22.80;100361.00;;;;2076963;28;20324;-57
2021/08/03 00:34:57;;;;;;;2.13;1.80;;;;;22.80;100369.00;;;;2077192;28;20248;-57
2021/08/03 00:35:58;;;;;;;2.20;2.00;;;;;22.80;100358.00;;;;2077069;28;20228;-57
2021/08/03 00:36:59;;;;;;;2.10;1.80;;;;;22.80;100365.00;;;;2076399;28;20218;-55
2021/08/03 00:38:00;;;;;;;1.93;1.73;;;;;22.80;100367.00;;;;2076060;28;20293;-54
2021/08/03 00:39:01;;;;;;;1.83;1.73;;;;;22.80;100361.00;;;;2073852;28;20746;-55
2021/08/03 00:40:05;;;;;;;2.33;1.87;;;;;22.80;100366.00;;;;2084319;28;20213;-54
2021/08/03 00:41:15;;;;;;;2.20;2.00;;;;;22.80;100363.00;;;;2074873;28;20283;-56
2021/08/03 00:42:15;;;;;;;2.53;1.92;;;;;22.80;100367.00;;;;2077999;28;20268;-56
2021/08/03 00:43:15;;;;;;;2.80;1.90;;;;;22.80;100371.00;;;;2084678;28;20217;-54
2021/08/03 00:44:16;;;;;;;3.43;2.00;;;;;22.80;100370.00;;;;2085104;28;20216;-56
2021/08/03 00:45:16;;;;;;;2.30;1.60;;;;;22.80;100363.00;;;;2085134;28;20752;-57
2021/08/03 00:46:17;;;;;;;2.10;1.90;;;;;22.80;100373.00;;;;2084063;28;20221;-57
2021/08/03 00:47:18;;;;;;;2.43;2.10;;;;;22.80;100369.00;;;;2083574;28;20228;-56
2021/08/03 00:48:19;;;;;;;2.00;1.77;;;;;22.80;100357.00;;;;2075911;28;20586;-57
2021/08/03 00:49:20;;;;;;;1.75;1.65;;;;;22.80;100365.00;;;;2071562;28;20249;-54
2021/08/03 00:50:20;;;;;;;1.93;1.73;;;;;22.80;100366.00;;;;2075941;28;20676;-57
2021/08/03 00:51:21;;;;;;;2.00;1.80;;;;;22.80;100366.00;;;;2080192;28;20288;-55
2021/08/03 00:52:21;;;;;;;1.70;1.50;;;;;22.80;100360.00;;;;2079722;28;20241;-56
2021/08/03 00:53:22;;;;;;;2.87;2.10;;;;;22.80;100362.00;;;;2079676;28;20264;-56
2021/08/03 00:54:22;;;;;;;2.85;1.80;;;;;22.80;100370.00;;;;2079472;28;20217;-56
2021/08/03 00:55:23;;;;;;;2.60;1.83;;;;;22.80;100359.00;;;;2079763;28;20248;-55
2021/08/03 00:56:23;;;;;;;2.53;1.80;;;;;22.80;100360.00;;;;2075894;28;20210;-56
2021/08/03 00:57:25;;;;;;;1.83;1.73;;;;;22.80;100357.00;;;;2079789;28;20648;-56
2021/08/03 00:58:25;;;;;;;3.00;1.95;;;;;22.80;100358.00;;;;2076939;28;20308;-56
2021/08/03 00:59:25;;;;;;;2.10;1.80;;;;;22.80;100349.00;;;;2076507;28;20213;-56
2021/08/03 01:00:26;;;;;;;1.87;1.60;;;;;22.80;100353.00;;;;2071846;28;20869;-54
2021/08/03 01:01:26;;;;;;;2.13;1.70;;;;;22.80;100358.00;;;;2071678;28;20263;-56
2021/08/03 01:02:26;;;;;;;2.57;2.13;;;;;22.80;100354.00;;;;2071179;28;20244;-56
2021/08/03 01:03:28;;;;;;;2.70;2.13;;;;;22.80;100313.00;;;;2073570;28;20304;-57
2021/08/03 01:04:28;;;;;;;1.90;1.75;;;;;22.80;100353.00;;;;2075248;28;20822;-56
2021/08/03 01:05:33;;;;;;;1.70;1.60;;;;;22.80;100344.00;;;;2070004;28;20218;-56
2021/08/03 01:06:39;;;;;;;2.40;2.20;;;;;22.80;100350.00;;;;2062025;28;20230;-56
2021/08/03 01:07:42;;;;;;;1.88;1.77;;;;;22.80;100346.00;;;;2055841;28;20354;-55
2021/08/03 01:08:54;;;;;;;1.85;1.75;;;;;22.80;100341.00;;;;2077057;28;21035;-56
2021/08/03 01:10:07;;;;;;;1.63;1.52;;;;;22.80;100348.00;;;;2078824;28;20251;-56
2021/08/03 01:11:12;;;;;;;1.83;1.73;;;;;22.80;100339.00;;;;2076645;28;20221;-56
2021/08/03 01:12:29;;;;;;;2.50;1.75;;;;;22.80;100352.00;;;;2071710;28;20237;-56
2021/08/03 01:13:32;;;;;;;2.65;2.25;;;;;22.80;100346.00;;;;2078556;28;20209;-55
2021/08/03 01:14:38;;;;;;;2.15;1.73;;;;;22.80;100346.00;;;;2078657;28;20213;-54
2021/08/03 01:15:48;;;;;;;2.88;1.75;;;;;22.80;100349.00;;;;2070053;28;20218;-55
2021/08/03 01:16:49;;;;;;;2.00;1.80;;;;;22.80;100351.00;;;;2078661;28;20222;-56
2021/08/03 01:18:01;;;;;;;2.17;1.80;;;;;22.80;100357.00;;;;2079430;28;20209;-55
2021/08/03 01:19:08;;;;;;;2.17;1.98;;;;;22.80;100355.00;;;;2079154;28;20213;-56
2021/08/03 01:20:28;;;;;;;1.92;1.73;;;;;22.80;100349.00;;;;2078736;28;20267;-56
2021/08/03 01:21:42;;;;;;;1.92;1.73;;;;;22.80;100353.00;;;;2071356;28;20244;-55
2021/08/03 01:23:24;;;;;;;3.15;2.13;;;;;22.80;100354.00;;;;2069345;28;20221;-55
2021/08/03 01:24:35;;;;;;;2.25;2.05;;;;;22.80;100358.00;;;;2089406;28;20240;-54
2021/08/03 01:25:58;;;;;;;3.22;2.03;;;;;22.80;100352.00;;;;2083381;28;20236;-55
2021/08/03 01:27:34;;;;;;;2.05;1.95;;;;;22.80;100347.00;;;;2067271;28;20214;-55
2021/08/03 01:28:38;;;;;;;2.30;1.80;;;;;22.80;100355.00;;;;2087000;28;20220;-55
2021/08/03 01:29:39;;;;;;;2.38;1.92;;;;;22.70;100350.00;;;;2081659;28;20214;-55
2021/08/03 01:31:10;;;;;;;2.10;1.80;;;;;22.80;100349.00;;;;2061375;28;20214;-56
2021/08/03 01:32:10;;;;;;;2.03;1.83;;;;;22.80;100344.00;;;;2058728;28;21042;-56
2021/08/03 01:33:11;;;;;;;2.07;1.80;;;;;22.80;100344.00;;;;2071195;28;20218;-56
2021/08/03 01:34:12;;;;;;;2.17;2.00;;;;;22.70;100354.00;;;;2071846;28;20285;-54
2021/08/03 01:35:12;;;;;;;3.05;1.90;;;;;22.70;100352.00;;;;2073977;28;20706;-56
2021/08/03 01:36:13;;;;;;;2.00;1.80;;;;;22.70;100344.00;;;;2072588;28;20229;-54
2021/08/03 01:37:17;;;;;;;1.83;1.67;;;;;22.70;100350.00;;;;2063690;28;20219;-55
2021/08/03 01:38:20;;;;;;;2.03;1.75;;;;;22.80;100348.00;;;;2061203;28;20736;-57
2021/08/03 01:39:24;;;;;;;2.13;1.77;;;;;22.70;100341.00;;;;2070497;28;20214;-56
2021/08/03 01:40:27;;;;;;;2.08;1.70;;;;;22.80;100350.00;;;;2064838;28;20217;-56
2021/08/03 01:41:28;;;;;;;3.28;1.67;;;;;22.70;100346.00;;;;2079382;28;20290;-56
2021/08/03 01:42:28;;;;;;;1.80;1.70;;;;;22.70;100337.00;;;;2070546;28;20364;-57
2021/08/03 01:43:28;;;;;;;2.80;1.77;;;;;22.70;100342.00;;;;2057415;28;20294;-57
2021/08/03 01:44:30;;;;;;;3.83;1.83;;;;;22.70;100347.00;;;;2068026;28;20243;-56
2021/08/03 01:45:31;;;;;;;1.60;1.50;;;;;22.70;100335.00;;;;2066594;28;20245;-56
2021/08/03 01:46:34;;;;;;;2.23;2.03;;;;;22.70;100337.00;;;;2060105;28;20690;-54
2021/08/03 01:47:34;;;;;;;2.05;1.70;;;;;22.70;100338.00;;;;2071040;28;20317;-57
2021/08/03 01:48:34;;;;;;;5.47;1.97;;;;;22.70;100340.00;;;;2078442;28;20218;-59
2021/08/03 01:49:37;;;;;;;2.00;1.77;;;;;22.70;100340.00;;;;2077439;28;20209;-55
2021/08/03 01:50:38;;;;;;;1.92;1.83;;;;;22.80;100334.00;;;;2076215;28;20221;-56
2021/08/03 01:51:38;;;;;;;1.80;1.60;;;;;22.70;100336.00;;;;2070389;28;20256;-56
2021/08/03 01:52:39;;;;;;;3.00;2.00;;;;;22.70;100335.00;;;;2059251;28;20211;-56
2021/08/03 01:53:39;;;;;;;2.83;1.57;;;;;22.70;100334.00;;;;2062307;28;20214;-55
2021/08/03 01:54:40;;;;;;;1.90;1.70;;;;;22.70;100334.00;;;;2069829;28;20214;-55
2021/08/03 01:55:40;;;;;;;1.80;1.70;;;;;22.70;100336.00;;;;2073755;28;20285;-55
2021/08/03 01:56:41;;;;;;;2.30;2.03;;;;;22.70;100335.00;;;;2069776;28;20214;-56
2021/08/03 01:57:42;;;;;;;2.10;1.60;;;;;22.70;100341.00;;;;2064693;28;20210;-55
2021/08/03 01:58:42;;;;;;;2.25;1.85;;;;;22.70;100335.00;;;;2054797;28;20672;-56
2021/08/03 01:59:43;;;;;;;1.80;1.70;;;;;22.70;100337.00;;;;2061400;28;20214;-54
2021/08/03 02:00:43;;;;;;;2.63;1.90;;;;;22.70;100335.00;;;;2069140;28;20272;-55
2021/08/03 02:01:44;;;;;;;1.80;1.70;;;;;22.70;100345.00;;;;2070079;28;20225;-54
2021/08/03 02:02:44;;;;;;;3.47;2.00;;;;;22.70;100342.00;;;;2069798;28;20288;-56
2021/08/03 02:03:44;;;;;;;2.13;1.80;;;;;22.70;100341.00;;;;2070389;28;20214;-56
2021/08/03 02:04:46;;;;;;;2.43;1.80;;;;;22.70;100338.00;;;;2062356;28;20298;-56
2021/08/03 02:05:46;;;;;;;2.60;2.13;;;;;22.60;100336.00;;;;2062206;28;20986;-55
2021/08/03 02:06:47;;;;;;;2.20;2.00;;;;;22.70;100331.00;;;;2061894;28;20215;-57
2021/08/03 02:07:48;;;;;;;1.73;1.60;;;;;22.70;100335.00;;;;2066880;28;20280;-56
2021/08/03 02:08:49;;;;;;;2.03;1.90;;;;;22.70;100337.00;;;;2070357;28;20453;-56
2021/08/03 02:09:49;;;;;;;3.35;2.38;;;;;22.70;100338.00;;;;2078175;28;20778;-56
2021/08/03 02:10:50;;;;;;;1.70;1.57;;;;;22.70;100337.00;;;;2068944;28;20256;-55
2021/08/03 02:11:50;;;;;;;2.60;1.80;;;;;22.70;100337.00;;;;2068037;28;20214;-55
2021/08/03 02:12:50;;;;;;;2.10;1.90;;;;;22.70;100337.00;;;;2076759;28;20661;-55
2021/08/03 02:13:51;;;;;;;2.60;2.10;;;;;22.70;100334.00;;;;2070811;28;20645;-57
2021/08/03 02:14:52;;;;;;;2.23;1.87;;;;;22.70;100335.00;;;;2070511;28;20210;-56
2021/08/03 02:15:52;;;;;;;1.83;1.73;;;;;22.70;100334.00;;;;2070771;28;20472;-55
2021/08/03 02:16:53;;;;;;;2.40;1.83;;;;;22.70;100323.00;;;;2069782;28;20230;-55
2021/08/03 02:17:53;;;;;;;2.30;1.90;;;;;22.70;100325.00;;;;2070394;28;20610;-56
2021/08/03 02:18:53;;;;;;;2.33;2.13;;;;;22.70;100335.00;;;;2070957;28;20213;-56
2021/08/03 02:19:54;;;;;;;2.10;1.83;;;;;22.70;100336.00;;;;2070945;28;20296;-55
2021/08/03 02:20:54;;;;;;;2.60;1.80;;;;;22.70;100337.00;;;;2067709;28;20691;-54
2021/08/03 02:21:55;;;;;;;1.80;1.70;;;;;22.70;100337.00;;;;2070803;28;20214;-56
2021/08/03 02:22:55;;;;;;;2.23;1.73;;;;;22.70;100339.00;;;;2070376;28;20734;-56
2021/08/03 02:23:56;;;;;;;3.60;1.90;;;;;22.70;100331.00;;;;2073954;28;20590;-56
2021/08/03 02:24:56;;;;;;;1.93;1.60;;;;;22.70;100343.00;;;;2079021;28;20257;-56
2021/08/03 02:25:56;;;;;;;2.23;1.57;;;;;22.70;100338.00;;;;2078455;28;20252;-57
2021/08/03 02:26:57;;;;;;;3.10;2.10;;;;;22.70;100332.00;;;;2078864;28;21186;-56
2021/08/03 02:27:57;;;;;;;1.63;1.53;;;;;22.70;100341.00;;;;2078706;28;20213;-56
2021/08/03 02:28:57;;;;;;;2.13;1.80;;;;;22.70;100322.00;;;;2075305;28;20232;-57
2021/08/03 02:29:58;;;;;;;1.60;1.50;;;;;22.70;100332.00;;;;2075975;28;20225;-56
2021/08/03 02:30:59;;;;;;;2.00;1.77;;;;;22.70;100326.00;;;;2069906;28;20309;-56
2021/08/03 02:32:04;;;;;;;1.60;1.50;;;;;22.70;100334.00;;;;2070640;28;20265;-56
2021/08/03 02:33:08;;;;;;;2.35;2.15;;;;;22.70;100324.00;;;;2075386;28;20558;-54
2021/08/03 02:34:37;;;;;;;3.38;1.50;;;;;22.70;100333.00;;;;2075741;28;20217;-55
2021/08/03 02:35:42;;;;;;;1.83;1.50;;;;;22.70;100326.00;;;;2068138;28;20218;-57
2021/08/03 02:36:46;;;;;;;2.28;1.80;;;;;22.70;100332.00;;;;2064463;28;20233;-56
2021/08/03 02:37:52;;;;;;;1.73;1.63;;;;;22.70;100320.00;;;;2069663;28;20263;-56
2021/08/03 02:38:56;;;;;;;1.85;1.58;;;;;22.70;100335.00;;;;2061840;28;20288;-56
2021/08/03 02:39:56;;;;;;;2.10;1.70;;;;;22.70;100331.00;;;;2062547;28;20207;-56
2021/08/03 02:40:57;;;;;;;2.07;1.87;;;;;22.70;100324.00;;;;2060990;28;20655;-56
2021/08/03 02:41:57;;;;;;;1.77;1.57;;;;;22.60;100321.00;;;;2061824;28;20304;-56
2021/08/03 02:42:58;;;;;;;2.70;1.80;;;;;22.70;100323.00;;;;2062060;28;20215;-56
2021/08/03 02:43:58;;;;;;;1.97;1.70;;;;;22.70;100321.00;;;;2071483;28;20218;-56
2021/08/03 02:45:01;;;;;;;1.87;1.77;;;;;22.70;100324.00;;;;2076176;28;20310;-56
2021/08/03 02:46:03;;;;;;;2.63;1.65;;;;;22.70;100323.00;;;;2070689;28;20673;-55
2021/08/03 02:47:17;;;;;;;1.90;1.50;;;;;22.60;100331.00;;;;2068786;28;20225;-56
2021/08/03 02:48:19;;;;;;;2.30;1.80;;;;;22.70;100325.00;;;;2065574;28;20222;-56
2021/08/03 02:49:34;;;;;;;2.08;1.75;;;;;22.70;100331.00;;;;2069564;28;20212;-57
2021/08/03 02:50:34;;;;;;;2.20;2.00;;;;;22.70;100315.00;;;;2068710;28;20394;-55
2021/08/03 02:51:36;;;;;;;2.47;2.20;;;;;22.70;100324.00;;;;2070191;28;20268;-55
2021/08/03 02:52:41;;;;;;;2.30;1.60;;;;;22.70;100331.00;;;;2069566;28;20218;-55
2021/08/03 02:53:49;;;;;;;1.95;1.75;;;;;22.70;100330.00;;;;2069825;28;20879;-56
2021/08/03 02:55:02;;;;;;;2.08;1.90;;;;;22.70;100326.00;;;;2066976;28;20230;-54
2021/08/03 02:56:08;;;;;;;2.10;1.50;;;;;22.70;100332.00;;;;2056288;28;20783;-56
2021/08/03 02:57:09;;;;;;;2.10;1.90;;;;;22.70;100324.00;;;;2070493;28;20234;-56
2021/08/03 02:58:11;;;;;;;2.65;1.88;;;;;22.70;100325.00;;;;2070055;28;20213;-56
2021/08/03 02:59:12;;;;;;;2.35;1.75;;;;;22.70;100316.00;;;;2069322;28;20218;-56
2021/08/03 03:00:13;;;;;;;2.55;2.08;;;;;22.70;100317.00;;;;2074722;28;20311;-57
2021/08/03 03:01:13;;;;;;;2.30;2.10;;;;;22.60;100331.00;;;;2063607;28;20223;-56
2021/08/03 03:02:14;;;;;;;2.30;2.10;;;;;22.60;100318.00;;;;2065248;28;21147;-55
2021/08/03 03:03:21;;;;;;;2.00;1.80;;;;;22.60;100326.00;;;;2078172;28;20713;-56
2021/08/03 03:04:24;;;;;;;2.40;1.83;;;;;22.60;100321.00;;;;2078444;28;20217;-56
2021/08/03 03:05:26;;;;;;;2.45;2.10;;;;;22.60;100324.00;;;;2060865;28;20219;-55
2021/08/03 03:06:26;;;;;;;2.10;1.90;;;;;22.60;100324.00;;;;2049591;28;20224;-57
2021/08/03 03:07:32;;;;;;;1.77;1.53;;;;;22.60;100325.00;;;;2069702;28;20210;-56
2021/08/03 03:08:33;;;;;;;2.30;1.83;;;;;22.60;100324.00;;;;2078207;28;20209;-56
2021/08/03 03:09:34;;;;;;;2.08;1.70;;;;;22.60;100324.00;;;;2077977;28;20224;-55
2021/08/03 03:10:37;;;;;;;1.70;1.57;;;;;22.60;100321.00;;;;2076261;28;20234;-54
2021/08/03 03:11:37;;;;;;;1.75;1.60;;;;;22.60;100318.00;;;;2068801;28;21133;-57
2021/08/03 03:12:38;;;;;;;2.03;1.53;;;;;22.60;100312.00;;;;2068922;28;20872;-56
2021/08/03 03:14:01;;;;;;;2.37;2.00;;;;;22.60;100325.00;;;;2056553;28;20267;-56
2021/08/03 03:15:02;;;;;;;1.80;1.70;;;;;22.60;100316.00;;;;2063682;28;20456;-56
2021/08/03 03:16:03;;;;;;;1.98;1.50;;;;;22.60;100307.00;;;;2075054;28;20224;-55
2021/08/03 03:17:03;;;;;;;2.90;1.80;;;;;22.60;100311.00;;;;2069326;28;20621;-56
2021/08/03 03:18:04;;;;;;;2.20;1.73;;;;;22.60;100314.00;;;;2068766;28;20280;-56
2021/08/03 03:19:05;;;;;;;1.90;1.70;;;;;22.60;100314.00;;;;2069233;28;20210;-56
2021/08/03 03:20:06;;;;;;;1.80;1.70;;;;;22.70;100308.00;;;;2069716;28;20214;-56
2021/08/03 03:21:07;;;;;;;1.70;1.60;;;;;22.60;100303.00;;;;2067901;28;20885;-56
2021/08/03 03:22:07;;;;;;;2.20;1.77;;;;;22.60;100318.00;;;;2069256;28;20218;-56
2021/08/03 03:23:08;;;;;;;2.27;1.93;;;;;22.60;100321.00;;;;2069424;28;20347;-55
2021/08/03 03:24:08;;;;;;;3.97;1.80;;;;;22.60;100317.00;;;;2068885;28;20949;-55
2021/08/03 03:25:10;;;;;;;2.43;1.90;;;;;22.60;100314.00;;;;2068956;28;20642;-54
2021/08/03 03:26:11;;;;;;;1.80;1.70;;;;;22.60;100307.00;;;;2068736;28;20301;-54
2021/08/03 03:27:11;;;;;;;2.10;1.90;;;;;22.60;100313.00;;;;2070690;28;20654;-56
2021/08/03 03:28:12;;;;;;;2.20;1.70;;;;;22.60;100282.00;;;;2058698;28;20227;-56
2021/08/03 03:29:12;;;;;;;1.87;1.77;;;;;22.60;100316.00;;;;2059932;28;20218;-56
2021/08/03 03:30:16;;;;;;;1.77;1.57;;;;;22.60;100312.00;;;;2053187;28;20215;-56
2021/08/03 03:31:16;;;;;;;2.08;1.48;;;;;22.60;100308.00;;;;2074443;28;21040;-55
2021/08/03 03:32:17;;;;;;;2.10;1.50;;;;;22.60;100309.00;;;;2071641;28;20225;-56
2021/08/03 03:33:17;;;;;;;2.07;1.70;;;;;22.60;100292.00;;;;2070607;28;20987;-57
2021/08/03 03:34:18;;;;;;;2.10;1.70;;;;;22.60;100305.00;;;;2064644;28;20222;-56
2021/08/03 03:35:19;;;;;;;1.97;1.77;;;;;22.60;100308.00;;;;2071871;28;20228;-57
2021/08/03 03:36:22;;;;;;;1.50;1.40;;;;;22.60;100299.00;;;;2063032;28;20226;-56
2021/08/03 03:37:25;;;;;;;1.92;1.80;;;;;22.60;100294.00;;;;2053484;28;20227;-54
2021/08/03 03:38:27;;;;;;;2.83;1.95;;;;;22.60;100302.00;;;;2062877;28;20675;-57
2021/08/03 03:39:28;;;;;;;1.65;1.55;;;;;22.60;100296.00;;;;2062821;28;20225;-56
2021/08/03 03:40:28;;;;;;;1.90;1.70;;;;;22.60;100290.00;;;;2071193;28;20213;-56
2021/08/03 03:41:30;;;;;;;1.63;1.50;;;;;22.60;100292.00;;;;2069124;28;20209;-56
2021/08/03 03:42:31;;;;;;;1.70;1.60;;;;;22.60;100298.00;;;;2068824;28;20214;-56
2021/08/03 03:43:32;;;;;;;2.03;1.85;;;;;22.60;100291.00;;;;2078153;28;20231;-56
2021/08/03 03:44:33;;;;;;;2.73;1.90;;;;;22.60;100293.00;;;;2077210;28;20209;-54
2021/08/03 03:45:33;;;;;;;1.67;1.55;;;;;22.60;100287.00;;;;2077573;28;20581;-54
2021/08/03 03:46:39;;;;;;;2.00;1.90;;;;;22.60;100290.00;;;;2077652;28;20218;-57
2021/08/03 03:47:42;;;;;;;1.77;1.60;;;;;22.60;100287.00;;;;2069571;28;20218;-56
2021/08/03 03:48:52;;;;;;;4.47;2.00;;;;;22.60;100287.00;;;;2069875;28;20297;-57
2021/08/03 03:50:11;;;;;;;1.80;1.70;;;;;22.60;100296.00;;;;2063094;28;20350;-54
2021/08/03 03:51:15;;;;;;;3.08;1.73;;;;;22.60;100293.00;;;;2062590;28;20262;-55
2021/08/03 03:52:16;;;;;;;1.75;1.65;;;;;22.60;100290.00;;;;2070635;28;20234;-55
2021/08/03 03:53:21;;;;;;;2.00;1.80;;;;;22.60;100290.00;;;;2067412;28;20237;-54
2021/08/03 03:54:25;;;;;;;1.42;1.30;;;;;22.60;100293.00;;;;2062032;28;20222;-54
2021/08/03 03:55:26;;;;;;;2.85;1.65;;;;;22.60;100285.00;;;;2068525;28;20235;-56
2021/08/03 03:56:29;;;;;;;2.23;2.03;;;;;22.60;100283.00;;;;2069702;28;20286;-55
2021/08/03 03:57:30;;;;;;;1.63;1.52;;;;;22.60;100290.00;;;;2064580;28;20223;-56
2021/08/03 03:58:30;;;;;;;1.80;1.53;;;;;22.60;100290.00;;;;2069861;28;20206;-56
2021/08/03 03:59:30;;;;;;;2.63;2.10;;;;;22.60;100290.00;;;;2069638;28;20242;-55
2021/08/03 04:00:34;;;;;;;1.97;1.80;;;;;22.60;100291.00;;;;2076752;28;20769;-55
2021/08/03 04:01:34;;;;;;;2.50;2.03;;;;;22.60;100285.00;;;;2075233;28;20300;-56
2021/08/03 04:02:35;;;;;;;1.80;1.60;;;;;22.60;100290.00;;;;2069638;28;20237;-55
2021/08/03 04:03:36;;;;;;;2.17;1.97;;;;;22.60;100277.00;;;;2069502;28;20206;-56
2021/08/03 04:04:38;;;;;;;1.95;1.75;;;;;22.60;100294.00;;;;2069602;28;20465;-55
2021/08/03 04:05:39;;;;;;;1.95;1.80;;;;;22.60;100292.00;;;;2068449;28;20718;-56
2021/08/03 04:06:40;;;;;;;3.07;1.70;;;;;22.60;100288.00;;;;2063550;28;20260;-55
2021/08/03 04:07:41;;;;;;;2.70;1.90;;;;;22.60;100293.00;;;;2076533;28;21169;-56
2021/08/03 04:08:41;;;;;;;1.92;1.83;;;;;22.60;100295.00;;;;2073398;28;20286;-56
2021/08/03 04:09:42;;;;;;;2.00;1.90;;;;;22.60;100294.00;;;;2072182;28;20808;-56
2021/08/03 04:10:42;;;;;;;1.77;1.67;;;;;22.60;100290.00;;;;2073884;28;20209;-55
2021/08/03 04:11:44;;;;;;;1.80;1.70;;;;;22.60;100288.00;;;;2077981;28;20217;-57
2021/08/03 04:12:45;;;;;;;2.08;1.65;;;;;22.60;100288.00;;;;2069773;28;20210;-56
2021/08/03 04:13:47;;;;;;;2.10;1.70;;;;;22.60;100286.00;;;;2068466;28;20252;-56
2021/08/03 04:14:48;;;;;;;2.15;1.80;;;;;22.60;100289.00;;;;2061708;28;20587;-56
2021/08/03 04:15:48;;;;;;;2.83;1.80;;;;;22.60;100288.00;;;;2053455;28;20211;-55
2021/08/03 04:16:49;;;;;;;3.37;1.90;;;;;22.60;100300.00;;;;2072565;28;20225;-56
2021/08/03 04:17:50;;;;;;;2.83;2.15;;;;;22.60;100300.00;;;;2070067;28;20245;-56
2021/08/03 04:18:51;;;;;;;1.90;1.80;;;;;22.50;100306.00;;;;2073839;28;20221;-54
2021/08/03 04:19:51;;;;;;;2.47;1.80;;;;;22.60;100300.00;;;;2078367;28;20217;-56
2021/08/03 04:20:52;;;;;;;2.47;2.00;;;;;22.60;100307.00;;;;2076756;28;20299;-56
2021/08/03 04:21:52;;;;;;;1.50;1.40;;;;;22.60;100306.00;;;;2072104;28;20741;-55
2021/08/03 04:22:53;;;;;;;2.63;1.90;;;;;22.60;100304.00;;;;2070976;28;20218;-56
2021/08/03 04:23:53;;;;;;;1.80;1.70;;;;;22.60;100296.00;;;;2078414;28;20298;-56
2021/08/03 04:24:53;;;;;;;2.17;1.87;;;;;22.60;100300.00;;;;2075423;28;20218;-56
2021/08/03 04:25:54;;;;;;;3.10;1.80;;;;;22.60;100305.00;;;;2079755;28;20213;-54
2021/08/03 04:26:54;;;;;;;1.87;1.63;;;;;22.60;100298.00;;;;2073440;28;20216;-54
2021/08/03 04:27:54;;;;;;;2.03;1.70;;;;;22.60;100297.00;;;;2062099;28;20207;-57
2021/08/03 04:28:55;;;;;;;4.37;2.20;;;;;22.60;100301.00;;;;2062975;28;20219;-56
2021/08/03 04:29:55;;;;;;;2.07;1.87;;;;;22.60;100300.00;;;;2071701;28;20294;-56
2021/08/03 04:30:58;;;;;;;2.10;1.90;;;;;22.60;100299.00;;;;2070724;28;20210;-56
2021/08/03 04:31:58;;;;;;;1.98;1.75;;;;;22.60;100295.00;;;;2071705;28;20222;-56
2021/08/03 04:32:58;;;;;;;2.90;2.20;;;;;22.60;100285.00;;;;2071827;28;20334;-55
2021/08/03 04:33:59;;;;;;;3.83;2.23;;;;;22.60;100285.00;;;;2074005;28;20229;-56
2021/08/03 04:34:59;;;;;;;2.80;2.10;;;;;22.60;100289.00;;;;2075476;28;20209;-56
2021/08/03 04:36:00;;;;;;;2.53;2.23;;;;;22.60;100295.00;;;;2075264;28;20218;-56
2021/08/03 04:37:00;;;;;;;3.50;1.80;;;;;22.60;100291.00;;;;2072326;28;20742;-56
2021/08/03 04:38:01;;;;;;;2.73;1.87;;;;;22.60;100287.00;;;;2078702;28;20217;-55
2021/08/03 04:39:02;;;;;;;3.07;2.17;;;;;22.60;100288.00;;;;2079944;28;21044;-56
2021/08/03 04:40:02;;;;;;;2.40;2.20;;;;;22.60;100293.00;;;;2079618;28;20590;-54
2021/08/03 04:41:03;;;;;;;2.43;1.87;;;;;22.60;100290.00;;;;2077343;28;20301;-56
2021/08/03 04:42:03;;;;;;;2.90;2.07;;;;;22.50;100290.00;;;;2071708;28;20214;-56
2021/08/03 04:43:04;;;;;;;2.90;1.87;;;;;22.50;100290.00;;;;2071729;28;20214;-57
2021/08/03 04:44:04;;;;;;;2.00;1.80;;;;;22.60;100289.00;;;;2074750;28;20283;-55
2021/08/03 04:45:05;;;;;;;3.57;2.40;;;;;22.60;100287.00;;;;2078391;28;20217;-55
2021/08/03 04:46:06;;;;;;;2.43;1.70;;;;;22.60;100285.00;;;;2078776;28;20612;-55
2021/08/03 04:47:07;;;;;;;1.80;1.70;;;;;22.60;100288.00;;;;2079758;28;20870;-56
2021/08/03 04:48:07;;;;;;;2.20;2.00;;;;;22.60;100288.00;;;;2079523;28;20218;-56
2021/08/03 04:49:08;;;;;;;2.80;1.67;;;;;22.60;100288.00;;;;2079476;28;20309;-57
2021/08/03 04:50:10;;;;;;;3.17;2.43;;;;;22.60;100292.00;;;;2079294;28;20239;-56
2021/08/03 04:51:10;;;;;;;2.80;1.70;;;;;22.60;100284.00;;;;2078760;28;20674;-55
2021/08/03 04:52:11;;;;;;;3.73;2.50;;;;;22.60;100287.00;;;;2079772;28;20240;-55
2021/08/03 04:53:11;;;;;;;2.47;2.00;;;;;22.60;100285.00;;;;2075820;28;20215;-55
2021/08/03 04:54:11;;;;;;;2.20;2.00;;;;;22.60;100288.00;;;;2071460;28;20218;-56
2021/08/03 04:55:12;;;;;;;2.20;1.90;;;;;22.60;100288.00;;;;2071737;28;20711;-55
2021/08/03 04:56:13;;;;;;;2.07;1.87;;;;;22.60;100288.00;;;;2077811;28;20575;-55
2021/08/03 04:57:13;;;;;;;2.57;2.10;;;;;22.70;100288.00;;;;2075410;28;20931;-56
2021/08/03 04:58:14;;;;;;;3.70;1.80;;;;;22.60;100276.00;;;;2070649;28;20364;-56
2021/08/03 04:59:14;;;;;;;3.13;2.00;;;;;22.60;100284.00;;;;2071342;28;20218;-56
2021/08/03 05:00:15;;;;;;;2.40;2.10;;;;;22.60;100290.00;;;;2070316;28;20218;-56
2021/08/03 05:01:15;;;;;;;2.20;2.00;;;;;22.60;100288.00;;;;2070165;28;20237;-55
2021/08/03 05:02:16;;;;;;;2.37;1.97;;;;;22.60;100277.00;;;;2071122;28;20592;-54
2021/08/03 05:03:16;;;;;;;2.70;2.07;;;;;22.60;100280.00;;;;2076163;28;20293;-56
2021/08/03 05:04:16;;;;;;;5.73;2.00;;;;;22.60;100279.00;;;;2077236;28;20213;-55
2021/08/03 05:05:17;;;;;;;2.03;1.83;;;;;22.70;100283.00;;;;2074438;28;20281;-55
2021/08/03 05:06:17;;;;;;;5.17;2.03;;;;;22.60;100272.00;;;;2073582;28;20885;-56
2021/08/03 05:07:17;;;;;;;9.97;2.50;;;;;22.60;100281.00;;;;2073310;28;20287;-56
2021/08/03 05:08:18;;;;;;;2.73;2.20;;;;;22.60;100284.00;;;;2077237;28;20214;-56
2021/08/03 05:09:18;;;;;;;3.70;2.40;;;;;22.60;100284.00;;;;2079494;28;20268;-56